KIRS/IRS METAR and TAF weather

Enter ICAO airport designator
Station Type Date Time Source
KIRS METAR 2020/09/30 16:15 UTC NOAA

KIRS 301615Z AUTO 24013G24KT 10SM SCT025 BKN085 BKN110 14/08 A2957 RMK AO2 T01440084


Station Type Date Time Source
KIRS Decoded METAR 2020/09/30 16:15 UTC NOAA

Sturgis, Kirsch Municipal Airport, MI, United States (KIRS) 41-48-46N 085-26-21W
Sep 30, 2020 - 12:15 PM EDT / 2020.09.30 1615 UTC
Wind: from the WSW (240 degrees) at 15 MPH (13 KT) gusting to 28 MPH (24 KT):0
Visibility: 10 mile(s):0
Sky conditions: mostly cloudy
Temperature: 57.9 F (14.4 C)
Dew Point: 47.1 F (8.4 C)
Relative Humidity: 67%
Pressure (altimeter): 29.57 in. Hg (1001 hPa)
ob: KIRS 301615Z AUTO 24013G24KT 10SM SCT025 BKN085 BKN110 14/08 A2957 RMK AO2 T01440084
cycle: 16

Station Type Date Time Source
KIRS TAF UTC NOAA

Error!

Example: see airport list